Crawford, OK (73638)

3:02 AM CDT on July 25, 2014 (GMT -0500)
Gage (KGAG) Elev 2195 ft | 36.30 °N, 99.78 °W | Change Station
Active Advisory: Heat Advisory

Current weather conditions updated 9 minutes ago

Clear
Clear
79 °F
Feels Like 79 °F
N
21
Wind Variable Wind from South
Gusts 30 mph

Today is forecast to be Warmer than yesterday.

Today
High -- | Low -- °F
--% Chance of Precip.
Yesterday
High -- | Low -- °F
Precip. -- in
6:41 AM 8:49 PM
Waning Crescent, 2% visible
Pressure 29.86 in
Visibility 10.0 miles
Clouds Clear
Dew Point 68 °F
Humidity 69%
Rainfall 0.00 in
Snow Depth Not available.
UV 0 out of 12
Pollen 5.10 out of 12
Air Quality Not available.
Flu Activity Not available.
METAR KGAG 250753Z AUTO 19018G26KT 10SM CLR 26/20 A2996 RMK AO2 PK WND 18028/0657 SLP111 T02610200

More Conditions Fewer Conditions

Pressure 29.86 in
Visibility 10.0 miles
Clouds Clear
Dew Point 68 °F
Humidity 69%
Rainfall 0.00 in
Snow Depth Not available.
UV 0 out of 12
Pollen 5.10 out of 12
Air Quality Not available.
Flu Activity Not available.
METAR KGAG 250753Z AUTO 19018G26KT 10SM CLR 26/20 A2996 RMK AO2 PK WND 18028/0657 SLP111 T02610200

More Conditions Fewer Conditions

10-Day Weather Forecast

Almanac

Astronomy

Jul. 25, 2014 Rise Set
Actual Time 6:41 AM CDT 8:49 PM CDT
Civil Twilight 6:12 AM CDT 9:18 PM CDT
Nautical Twilight 5:37 AM CDT 9:53 PM CDT
Astronomical Twilight 4:59 AM CDT 10:30 PM CDT
Moon 5:41 AM CDT 7:49 PM CDT
Length of Visible Light 15h 05m
Length of Day
14h 07m
Tomorrow will be 1m 30s shorter.
Waning Crescent, 2% of the Moon is Illuminated
Today
Waning Crescent
Jul 26
New
Aug 3
First Quarter
Aug 10
Full
Aug 17
Last Quarter

Today's Extremes

State Highs State Lows

Community

WunderPhotos

Upload Photos

1,737,273 photos uploaded!

Nearby

Snow Depth

Station Depth Elevation
No new snow has been reported.

Earthquake Activity

City Distance Mag. Time & Date
Harper, Kansas 139 miles 3.3 7:24 AM CDT
2014-07-20
Harper, Kansas 140 miles 3.0 7:24 PM CDT
2014-07-19
Helena, Oklahoma 108 miles 3.2 8:41 AM CDT
2014-07-18
Minimum magnitude displayed is 2.5.

Coastal Water Temperatures

Place Temperature
No Stations Reporting

Nearby Weather Stations

Station Location Temp. Heat Index Dew Point Humidity Wind Precip. Elev Updated Type
RAWS CHEYENNE OK, Reydon, OK 78 °F 80 °F 67 °F 70% SSE  at  13 mph 0.00 in / hr 2352 ft 1:58 AM CDT MADIS

Show More Stations Show Fewer Stations